sensor_id;sensor_type;location;lat;lon;timestamp;pressure;altitude;pressure_sealevel;temperature;humidity
13734;BME280;43298;52.560;13.508;2023-06-26T00:02:06;100978.03;;;18.41;100.00
13734;BME280;43298;52.560;13.508;2023-06-26T00:04:32;100974.28;;;18.45;100.00
13734;BME280;43298;52.560;13.508;2023-06-26T00:06:58;100989.22;;;18.56;100.00
13734;BME280;43298;52.560;13.508;2023-06-26T00:09:24;100994.34;;;18.57;100.00
13734;BME280;43298;52.560;13.508;2023-06-26T00:11:49;100996.03;;;18.58;100.00
13734;BME280;43298;52.560;13.508;2023-06-26T00:14:15;100994.16;;;18.60;100.00
13734;BME280;43298;52.560;13.508;2023-06-26T00:16:41;100994.78;;;18.51;100.00
13734;BME280;43298;52.560;13.508;2023-06-26T00:19:08;100985.16;;;18.52;100.00
13734;BME280;43298;52.560;13.508;2023-06-26T00:21:33;100978.44;;;18.60;100.00
13734;BME280;43298;52.560;13.508;2023-06-26T00:23:59;100986.56;;;18.68;100.00
13734;BME280;43298;52.560;13.508;2023-06-26T00:26:25;100984.91;;;18.67;100.00
13734;BME280;43298;52.560;13.508;2023-06-26T00:28:51;100988.75;;;18.74;100.00
13734;BME280;43298;52.560;13.508;2023-06-26T00:31:17;100995.66;;;18.75;100.00
13734;BME280;43298;52.560;13.508;2023-06-26T00:33:42;100998.06;;;18.78;100.00
13734;BME280;43298;52.560;13.508;2023-06-26T00:36:08;100988.88;;;18.73;100.00
13734;BME280;43298;52.560;13.508;2023-06-26T00:38:35;100995.88;;;18.72;100.00
13734;BME280;43298;52.560;13.508;2023-06-26T00:41:01;101000.06;;;18.75;100.00
13734;BME280;43298;52.560;13.508;2023-06-26T00:43:26;100996.63;;;18.74;100.00
13734;BME280;43298;52.560;13.508;2023-06-26T00:45:52;100998.28;;;18.75;100.00
13734;BME280;43298;52.560;13.508;2023-06-26T00:48:18;100993.78;;;18.77;100.00
13734;BME280;43298;52.560;13.508;2023-06-26T00:50:44;100995.34;;;18.80;100.00
13734;BME280;43298;52.560;13.508;2023-06-26T00:53:11;100989.03;;;18.82;100.00
13734;BME280;43298;52.560;13.508;2023-06-26T00:55:38;100990.28;;;18.89;100.00
13734;BME280;43298;52.560;13.508;2023-06-26T00:58:04;100989.22;;;18.92;100.00
13734;BME280;43298;52.560;13.508;2023-06-26T01:00:30;100993.41;;;18.94;100.00
13734;BME280;43298;52.560;13.508;2023-06-26T01:02:55;100984.38;;;18.98;100.00
13734;BME280;43298;52.560;13.508;2023-06-26T01:05:26;100984.59;;;18.95;100.00
13734;BME280;43298;52.560;13.508;2023-06-26T01:07:52;100982.91;;;18.94;100.00
13734;BME280;43298;52.560;13.508;2023-06-26T01:10:19;100980.72;;;19.01;100.00
13734;BME280;43298;52.560;13.508;2023-06-26T01:12:45;100978.47;;;19.07;100.00
13734;BME280;43298;52.560;13.508;2023-06-26T01:15:11;100979.69;;;19.14;100.00
13734;BME280;43298;52.560;13.508;2023-06-26T01:17:37;100964.91;;;19.13;100.00
13734;BME280;43298;52.560;13.508;2023-06-26T01:20:06;100971.56;;;19.06;100.00
13734;BME280;43298;52.560;13.508;2023-06-26T01:28:17;100972.56;;;19.16;100.00
13734;BME280;43298;52.560;13.508;2023-06-26T01:30:45;100960.69;;;19.23;100.00
13734;BME280;43298;52.560;13.508;2023-06-26T01:33:13;100968.53;;;19.23;100.00
13734;BME280;43298;52.560;13.508;2023-06-26T01:35:40;100967.44;;;19.15;100.00
13734;BME280;43298;52.560;13.508;2023-06-26T01:38:14;100958.09;;;19.11;100.00
13734;BME280;43298;52.560;13.508;2023-06-26T01:40:40;100959.91;;;19.10;100.00
13734;BME280;43298;52.560;13.508;2023-06-26T01:46:15;100956.47;;;18.97;100.00
13734;BME280;43298;52.560;13.508;2023-06-26T01:51:23;100951.06;;;18.88;100.00
13734;BME280;43298;52.560;13.508;2023-06-26T01:53:54;100950.22;;;18.87;100.00
13734;BME280;43298;52.560;13.508;2023-06-26T01:58:49;100944.13;;;18.76;100.00
13734;BME280;43298;52.560;13.508;2023-06-26T02:01:19;100941.50;;;18.76;100.00
13734;BME280;43298;52.560;13.508;2023-06-26T02:03:44;100941.59;;;18.74;100.00
13734;BME280;43298;52.560;13.508;2023-06-26T02:06:10;100947.75;;;18.73;100.00
13734;BME280;43298;52.560;13.508;2023-06-26T02:08:36;100943.59;;;18.71;100.00
13734;BME280;43298;52.560;13.508;2023-06-26T02:11:02;100940.38;;;18.67;100.00
13734;BME280;43298;52.560;13.508;2023-06-26T02:13:28;100939.53;;;18.67;100.00
13734;BME280;43298;52.560;13.508;2023-06-26T02:15:53;100931.78;;;18.65;100.00
13734;BME280;43298;52.560;13.508;2023-06-26T02:18:19;100936.78;;;18.68;100.00
13734;BME280;43298;52.560;13.508;2023-06-26T02:20:48;100943.09;;;18.66;100.00
13734;BME280;43298;52.560;13.508;2023-06-26T02:23:14;100938.66;;;18.66;100.00
13734;BME280;43298;52.560;13.508;2023-06-26T02:25:40;100929.78;;;18.69;100.00
13734;BME280;43298;52.560;13.508;2023-06-26T02:28:06;100931.94;;;18.75;100.00
13734;BME280;43298;52.560;13.508;2023-06-26T02:30:31;100935.63;;;18.72;100.00
13734;BME280;43298;52.560;13.508;2023-06-26T02:32:57;100935.63;;;18.72;100.00
13734;BME280;43298;52.560;13.508;2023-06-26T02:35:23;100937.69;;;18.80;100.00
13734;BME280;43298;52.560;13.508;2023-06-26T02:37:49;100933.91;;;18.84;100.00
13734;BME280;43298;52.560;13.508;2023-06-26T02:40:15;100935.56;;;18.85;100.00
13734;BME280;43298;52.560;13.508;2023-06-26T02:42:40;100932.72;;;18.88;100.00
13734;BME280;43298;52.560;13.508;2023-06-26T02:45:07;100932.63;;;18.89;100.00
13734;BME280;43298;52.560;13.508;2023-06-26T02:47:33;100936.91;;;18.90;100.00
13734;BME280;43298;52.560;13.508;2023-06-26T02:49:59;100931.44;;;18.93;100.00
13734;BME280;43298;52.560;13.508;2023-06-26T02:52:25;100934.06;;;18.93;100.00
13734;BME280;43298;52.560;13.508;2023-06-26T02:54:51;100930.13;;;18.88;100.00
13734;BME280;43298;52.560;13.508;2023-06-26T02:57:16;100933.06;;;18.83;100.00
13734;BME280;43298;52.560;13.508;2023-06-26T02:59:43;100930.53;;;18.82;100.00
13734;BME280;43298;52.560;13.508;2023-06-26T03:02:09;100919.69;;;18.75;100.00
13734;BME280;43298;52.560;13.508;2023-06-26T03:04:34;100924.19;;;18.73;100.00
13734;BME280;43298;52.560;13.508;2023-06-26T03:07:03;100914.66;;;18.72;100.00
13734;BME280;43298;52.560;13.508;2023-06-26T03:09:28;100925.25;;;18.71;100.00
13734;BME280;43298;52.560;13.508;2023-06-26T03:11:54;100917.16;;;18.74;100.00
13734;BME280;43298;52.560;13.508;2023-06-26T03:14:21;100916.56;;;18.70;100.00
13734;BME280;43298;52.560;13.508;2023-06-26T03:16:47;100908.19;;;18.65;100.00
13734;BME280;43298;52.560;13.508;2023-06-26T03:19:13;100905.69;;;18.64;100.00
13734;BME280;43298;52.560;13.508;2023-06-26T03:21:39;100909.03;;;18.66;100.00
13734;BME280;43298;52.560;13.508;2023-06-26T03:24:05;100903.06;;;18.64;100.00
13734;BME280;43298;52.560;13.508;2023-06-26T03:26:31;100905.06;;;18.60;100.00
13734;BME280;43298;52.560;13.508;2023-06-26T03:28:58;100900.16;;;18.56;100.00
13734;BME280;43298;52.560;13.508;2023-06-26T03:31:24;100902.03;;;18.54;100.00
13734;BME280;43298;52.560;13.508;2023-06-26T03:33:49;100907.28;;;18.54;100.00
13734;BME280;43298;52.560;13.508;2023-06-26T03:36:15;100902.03;;;18.54;100.00
13734;BME280;43298;52.560;13.508;2023-06-26T03:38:41;100897.66;;;18.54;100.00
13734;BME280;43298;52.560;13.508;2023-06-26T03:41:07;100900.28;;;18.54;100.00
13734;BME280;43298;52.560;13.508;2023-06-26T03:43:33;100895.97;;;18.53;100.00
13734;BME280;43298;52.560;13.508;2023-06-26T03:45:59;100895.03;;;18.54;100.00
13734;BME280;43298;52.560;13.508;2023-06-26T03:48:25;100898.59;;;18.53;100.00
13734;BME280;43298;52.560;13.508;2023-06-26T03:50:51;100897.75;;;18.53;100.00
13734;BME280;43298;52.560;13.508;2023-06-26T03:53:17;100893.69;;;18.49;100.00
13734;BME280;43298;52.560;13.508;2023-06-26T03:55:42;100895.78;;;18.56;100.00
13734;BME280;43298;52.560;13.508;2023-06-26T03:58:08;100892.94;;;18.59;100.00
13734;BME280;43298;52.560;13.508;2023-06-26T04:00:34;100900.34;;;18.65;100.00
13734;BME280;43298;52.560;13.508;2023-06-26T04:03:00;100895.78;;;18.80;100.00
13734;BME280;43298;52.560;13.508;2023-06-26T04:05:26;100893.09;;;18.92;100.00
13734;BME280;43298;52.560;13.508;2023-06-26T04:07:52;100885.28;;;19.03;100.00
13734;BME280;43298;52.560;13.508;2023-06-26T04:10:18;100888.19;;;19.22;100.00
13734;BME280;43298;52.560;13.508;2023-06-26T04:12:46;100887.31;;;19.34;100.00
13734;BME280;43298;52.560;13.508;2023-06-26T04:15:12;100890.22;;;19.53;100.00
13734;BME280;43298;52.560;13.508;2023-06-26T04:17:38;100891.19;;;19.74;100.00
13734;BME280;43298;52.560;13.508;2023-06-26T04:20:04;100884.75;;;19.89;100.00
13734;BME280;43298;52.560;13.508;2023-06-26T04:22:34;100882.22;;;20.10;100.00
13734;BME280;43298;52.560;13.508;2023-06-26T04:25:05;100877.59;;;20.24;100.00
13734;BME280;43298;52.560;13.508;2023-06-26T04:27:31;100873.28;;;20.34;100.00
13734;BME280;43298;52.560;13.508;2023-06-26T04:29:56;100875.66;;;20.48;100.00
13734;BME280;43298;52.560;13.508;2023-06-26T04:32:22;100875.84;;;20.67;100.00
13734;BME280;43298;52.560;13.508;2023-06-26T04:34:49;100881.53;;;20.84;100.00
13734;BME280;43298;52.560;13.508;2023-06-26T04:37:15;100873.97;;;20.90;100.00
13734;BME280;43298;52.560;13.508;2023-06-26T04:39:44;100881.66;;;21.14;100.00
13734;BME280;43298;52.560;13.508;2023-06-26T04:42:10;100878.00;;;21.26;100.00
13734;BME280;43298;52.560;13.508;2023-06-26T04:44:38;100872.41;;;21.40;100.00
13734;BME280;43298;52.560;13.508;2023-06-26T04:47:04;100868.75;;;21.52;100.00
13734;BME280;43298;52.560;13.508;2023-06-26T04:49:30;100865.31;;;21.61;100.00
13734;BME280;43298;52.560;13.508;2023-06-26T04:51:56;100863.53;;;21.82;100.00
13734;BME280;43298;52.560;13.508;2023-06-26T04:54:22;100858.50;;;21.79;100.00
13734;BME280;43298;52.560;13.508;2023-06-26T04:56:48;100852.22;;;21.91;100.00
13734;BME280;43298;52.560;13.508;2023-06-26T04:59:14;100855.53;;;21.93;100.00
13734;BME280;43298;52.560;13.508;2023-06-26T05:01:41;100854.84;;;21.91;100.00
13734;BME280;43298;52.560;13.508;2023-06-26T05:04:08;100858.94;;;22.14;100.00
13734;BME280;43298;52.560;13.508;2023-06-26T05:06:33;100855.38;;;22.24;100.00
13734;BME280;43298;52.560;13.508;2023-06-26T05:08:59;100855.13;;;22.37;100.00
13734;BME280;43298;52.560;13.508;2023-06-26T05:11:25;100853.59;;;22.44;100.00
13734;BME280;43298;52.560;13.508;2023-06-26T05:13:51;100863.50;;;22.70;100.00
13734;BME280;43298;52.560;13.508;2023-06-26T05:16:17;100857.13;;;22.82;100.00
13734;BME280;43298;52.560;13.508;2023-06-26T05:18:43;100854.59;;;23.09;100.00
13734;BME280;43298;52.560;13.508;2023-06-26T05:21:09;100852.25;;;23.35;100.00
13734;BME280;43298;52.560;13.508;2023-06-26T05:23:35;100851.69;;;23.41;100.00
13734;BME280;43298;52.560;13.508;2023-06-26T05:26:02;100853.44;;;23.50;100.00
13734;BME280;43298;52.560;13.508;2023-06-26T05:28:29;100850.38;;;23.55;100.00
13734;BME280;43298;52.560;13.508;2023-06-26T05:30:59;100846.22;;;23.52;100.00
13734;BME280;43298;52.560;13.508;2023-06-26T05:33:26;100845.81;;;23.57;100.00
13734;BME280;43298;52.560;13.508;2023-06-26T05:35:53;100843.41;;;23.63;100.00
13734;BME280;43298;52.560;13.508;2023-06-26T05:38:20;100838.66;;;23.67;100.00
13734;BME280;43298;52.560;13.508;2023-06-26T05:40:46;100839.91;;;23.72;100.00
13734;BME280;43298;52.560;13.508;2023-06-26T05:43:13;100837.91;;;23.84;100.00
13734;BME280;43298;52.560;13.508;2023-06-26T05:45:40;100827.75;;;23.79;100.00
13734;BME280;43298;52.560;13.508;2023-06-26T05:48:06;100827.53;;;23.73;100.00
13734;BME280;43298;52.560;13.508;2023-06-26T05:50:32;100826.59;;;23.64;100.00
13734;BME280;43298;52.560;13.508;2023-06-26T05:52:59;100833.59;;;23.83;100.00
13734;BME280;43298;52.560;13.508;2023-06-26T05:55:28;100828.47;;;23.81;100.00
13734;BME280;43298;52.560;13.508;2023-06-26T05:57:58;100824.84;;;23.82;100.00
13734;BME280;43298;52.560;13.508;2023-06-26T06:00:26;100830.16;;;23.73;100.00
13734;BME280;43298;52.560;13.508;2023-06-26T06:02:52;100827.25;;;23.76;100.00
13734;BME280;43298;52.560;13.508;2023-06-26T06:05:21;100825.09;;;23.89;100.00
13734;BME280;43298;52.560;13.508;2023-06-26T06:07:47;100829.66;;;23.96;100.00
13734;BME280;43298;52.560;13.508;2023-06-26T06:10:13;100828.75;;;24.15;100.00
13734;BME280;43298;52.560;13.508;2023-06-26T06:12:39;100824.03;;;24.09;100.00
13734;BME280;43298;52.560;13.508;2023-06-26T06:15:06;100816.75;;;24.20;100.00
13734;BME280;43298;52.560;13.508;2023-06-26T06:17:32;100818.28;;;24.40;100.00
13734;BME280;43298;52.560;13.508;2023-06-26T06:19:58;100823.22;;;24.53;100.00
13734;BME280;43298;52.560;13.508;2023-06-26T06:22:24;100825.50;;;25.00;100.00
13734;BME280;43298;52.560;13.508;2023-06-26T06:24:50;100827.72;;;25.89;100.00
13734;BME280;43298;52.560;13.508;2023-06-26T06:27:16;100832.88;;;26.57;100.00
13734;BME280;43298;52.560;13.508;2023-06-26T06:29:42;100823.81;;;27.31;100.00
13734;BME280;43298;52.560;13.508;2023-06-26T06:32:09;100831.69;;;27.71;100.00
13734;BME280;43298;52.560;13.508;2023-06-26T06:34:34;100834.97;;;27.89;100.00
13734;BME280;43298;52.560;13.508;2023-06-26T06:37:02;100845.78;;;27.88;100.00
13734;BME280;43298;52.560;13.508;2023-06-26T06:39:28;100853.47;;;27.59;100.00
13734;BME280;43298;52.560;13.508;2023-06-26T06:41:54;100850.38;;;28.02;100.00
13734;BME280;43298;52.560;13.508;2023-06-26T06:44:19;100846.97;;;28.16;100.00
13734;BME280;43298;52.560;13.508;2023-06-26T06:46:49;100840.91;;;28.60;100.00
13734;BME280;43298;52.560;13.508;2023-06-26T06:49:15;100832.78;;;28.99;100.00
13734;BME280;43298;52.560;13.508;2023-06-26T06:51:41;100838.69;;;29.17;100.00
13734;BME280;43298;52.560;13.508;2023-06-26T06:54:07;100834.06;;;28.89;100.00
13734;BME280;43298;52.560;13.508;2023-06-26T06:56:33;100826.81;;;29.34;100.00
13734;BME280;43298;52.560;13.508;2023-06-26T06:58:59;100821.31;;;29.36;100.00
13734;BME280;43298;52.560;13.508;2023-06-26T07:01:25;100816.00;;;29.36;96.58
13734;BME280;43298;52.560;13.508;2023-06-26T07:03:52;100818.75;;;28.91;95.90
13734;BME280;43298;52.560;13.508;2023-06-26T07:06:17;100810.00;;;29.19;95.22
13734;BME280;43298;52.560;13.508;2023-06-26T07:08:43;100805.25;;;29.29;98.37
13734;BME280;43298;52.560;13.508;2023-06-26T07:11:09;100800.50;;;29.68;96.57
13734;BME280;43298;52.560;13.508;2023-06-26T07:13:35;100806.19;;;29.65;93.68
13734;BME280;43298;52.560;13.508;2023-06-26T07:16:01;100808.69;;;29.81;95.73
13734;BME280;43298;52.560;13.508;2023-06-26T07:18:27;100806.19;;;29.65;97.06
13734;BME280;43298;52.560;13.508;2023-06-26T07:20:52;100810.69;;;29.94;97.71
13734;BME280;43298;52.560;13.508;2023-06-26T07:23:18;100808.16;;;30.07;96.60
13734;BME280;43298;52.560;13.508;2023-06-26T07:25:44;100807.06;;;30.01;91.72
13734;BME280;43298;52.560;13.508;2023-06-26T07:28:13;100802.31;;;29.68;91.34
13734;BME280;43298;52.560;13.508;2023-06-26T07:30:39;100798.13;;;30.23;91.62
13734;BME280;43298;52.560;13.508;2023-06-26T07:33:07;100802.97;;;30.55;88.12
13734;BME280;43298;52.560;13.508;2023-06-26T07:35:33;100805.59;;;30.49;87.03
13734;BME280;43298;52.560;13.508;2023-06-26T07:37:59;100796.50;;;30.43;85.89
13734;BME280;43298;52.560;13.508;2023-06-26T07:40:26;100797.31;;;30.08;87.08
13734;BME280;43298;52.560;13.508;2023-06-26T07:42:53;100795.66;;;30.85;84.68
13734;BME280;43298;52.560;13.508;2023-06-26T07:45:19;100789.56;;;30.70;81.52
13734;BME280;43298;52.560;13.508;2023-06-26T07:47:45;100786.56;;;30.37;81.15
13734;BME280;43298;52.560;13.508;2023-06-26T07:50:11;100786.69;;;30.29;84.29
13734;BME280;43298;52.560;13.508;2023-06-26T07:52:37;100779.28;;;30.10;82.06
13734;BME280;43298;52.560;13.508;2023-06-26T07:55:03;100783.00;;;30.30;82.92
13734;BME280;43298;52.560;13.508;2023-06-26T07:57:30;100777.88;;;30.14;81.44
13734;BME280;43298;52.560;13.508;2023-06-26T07:59:57;100780.84;;;30.40;80.65
13734;BME280;43298;52.560;13.508;2023-06-26T08:02:23;100776.94;;;30.78;76.96
13734;BME280;43298;52.560;13.508;2023-06-26T08:04:49;100777.41;;;30.67;81.30
13734;BME280;43298;52.560;13.508;2023-06-26T08:07:18;100768.16;;;30.63;74.71
13734;BME280;43298;52.560;13.508;2023-06-26T08:09:44;100772.34;;;30.72;76.40
13734;BME280;43298;52.560;13.508;2023-06-26T08:12:10;100767.69;;;31.08;73.88
13734;BME280;43298;52.560;13.508;2023-06-26T08:14:36;100768.94;;;31.12;73.60
13734;BME280;43298;52.560;13.508;2023-06-26T08:17:01;100774.63;;;30.75;72.09
13734;BME280;43298;52.560;13.508;2023-06-26T08:19:27;100765.66;;;31.38;69.45
13734;BME280;43298;52.560;13.508;2023-06-26T08:21:53;100762.34;;;31.36;69.89
13734;BME280;43298;52.560;13.508;2023-06-26T08:24:19;100764.81;;;31.38;67.58
13734;BME280;43298;52.560;13.508;2023-06-26T08:26:46;100769.41;;;31.50;69.58
13734;BME280;43298;52.560;13.508;2023-06-26T08:29:12;100760.69;;;31.07;67.81
13734;BME280;43298;52.560;13.508;2023-06-26T08:31:39;100760.50;;;31.09;68.86
13734;BME280;43298;52.560;13.508;2023-06-26T08:34:06;100760.75;;;31.14;69.88
13734;BME280;43298;52.560;13.508;2023-06-26T08:36:32;100760.63;;;31.63;68.50
13734;BME280;43298;52.560;13.508;2023-06-26T08:38:58;100761.94;;;31.33;67.31
13734;BME280;43298;52.560;13.508;2023-06-26T08:44:04;100750.78;;;32.30;65.59
13734;BME280;43298;52.560;13.508;2023-06-26T08:46:30;100748.94;;;32.30;66.28
13734;BME280;43298;52.560;13.508;2023-06-26T08:49:14;100749.13;;;31.69;64.99
13734;BME280;43298;52.560;13.508;2023-06-26T08:51:51;100750.38;;;31.73;65.24
13734;BME280;43298;52.560;13.508;2023-06-26T08:54:19;100742.66;;;31.44;64.36
13734;BME280;43298;52.560;13.508;2023-06-26T08:56:49;100746.41;;;32.03;64.60
13734;BME280;43298;52.560;13.508;2023-06-26T08:59:15;100747.66;;;32.13;63.56
13734;BME280;43298;52.560;13.508;2023-06-26T09:01:43;100752.19;;;32.13;64.30
13734;BME280;43298;52.560;13.508;2023-06-26T09:04:09;100738.06;;;32.58;64.04
13734;BME280;43298;52.560;13.508;2023-06-26T09:06:35;100740.91;;;32.30;61.26
13734;BME280;43298;52.560;13.508;2023-06-26T09:09:01;100738.06;;;32.58;63.36
13734;BME280;43298;52.560;13.508;2023-06-26T09:11:28;100729.81;;;32.33;63.07
13734;BME280;43298;52.560;13.508;2023-06-26T09:13:55;100725.28;;;32.53;62.06
13734;BME280;43298;52.560;13.508;2023-06-26T09:16:28;100718.84;;;33.26;62.30
13734;BME280;43298;52.560;13.508;2023-06-26T09:18:56;100713.13;;;32.77;60.07
13734;BME280;43298;52.560;13.508;2023-06-26T09:21:22;100718.50;;;32.38;61.73
13734;BME280;43298;52.560;13.508;2023-06-26T09:23:50;100713.97;;;32.58;59.13
13734;BME280;43298;52.560;13.508;2023-06-26T09:26:17;100719.56;;;32.63;61.30
13734;BME280;43298;52.560;13.508;2023-06-26T09:28:43;100714.59;;;32.47;60.08
13734;BME280;43298;52.560;13.508;2023-06-26T09:31:09;100719.34;;;32.71;58.81
13734;BME280;43298;52.560;13.508;2023-06-26T09:33:37;100710.66;;;32.49;59.75
13734;BME280;43298;52.560;13.508;2023-06-26T09:36:09;100705.50;;;32.48;59.81
13734;BME280;43298;52.560;13.508;2023-06-26T09:38:43;100712.53;;;32.49;57.42
13734;BME280;43298;52.560;13.508;2023-06-26T09:41:09;100707.47;;;32.00;56.28
13734;BME280;43298;52.560;13.508;2023-06-26T09:43:49;100703.06;;;32.53;59.47
13734;BME280;43298;52.560;13.508;2023-06-26T09:46:24;100696.84;;;32.98;55.97
13734;BME280;43298;52.560;13.508;2023-06-26T09:49:17;100693.66;;;33.33;56.09
13734;BME280;43298;52.560;13.508;2023-06-26T09:51:43;100693.22;;;33.94;54.05
13734;BME280;43298;52.560;13.508;2023-06-26T09:54:10;100685.28;;;33.04;52.98
13734;BME280;43298;52.560;13.508;2023-06-26T09:56:36;100700.06;;;33.39;54.01
13734;BME280;43298;52.560;13.508;2023-06-26T09:59:04;100687.25;;;33.41;51.76
13734;BME280;43298;52.560;13.508;2023-06-26T10:01:32;100688.19;;;33.59;54.02
13734;BME280;43298;52.560;13.508;2023-06-26T10:03:58;100682.19;;;33.64;53.67
13734;BME280;43298;52.560;13.508;2023-06-26T10:06:46;100678.31;;;33.98;52.84
13734;BME280;43298;52.560;13.508;2023-06-26T10:09:18;100683.84;;;34.03;51.49
13734;BME280;43298;52.560;13.508;2023-06-26T10:12:00;100679.00;;;33.87;49.91
13734;BME280;43298;52.560;13.508;2023-06-26T10:14:34;100671.00;;;33.16;51.19
13734;BME280;43298;52.560;13.508;2023-06-26T10:17:04;100675.88;;;33.45;52.21
13734;BME280;43298;52.560;13.508;2023-06-26T10:19:32;100671.78;;;33.80;51.76
13734;BME280;43298;52.560;13.508;2023-06-26T10:21:59;100672.03;;;34.10;51.90
13734;BME280;43298;52.560;13.508;2023-06-26T10:24:31;100664.78;;;34.42;50.08
13734;BME280;43298;52.560;13.508;2023-06-26T10:27:20;100658.53;;;33.92;51.84
13734;BME280;43298;52.560;13.508;2023-06-26T10:29:51;100659.13;;;34.50;51.61
13734;BME280;43298;52.560;13.508;2023-06-26T10:32:20;100650.81;;;34.33;50.67
13734;BME280;43298;52.560;13.508;2023-06-26T10:34:47;100645.69;;;34.50;49.44
13734;BME280;43298;52.560;13.508;2023-06-26T10:37:13;100642.47;;;34.41;51.82
13734;BME280;43298;52.560;13.508;2023-06-26T10:39:52;100640.63;;;34.60;49.57
13734;BME280;43298;52.560;13.508;2023-06-26T10:42:34;100650.34;;;34.85;50.12
13734;BME280;43298;52.560;13.508;2023-06-26T10:45:29;100643.50;;;34.65;51.19
13734;BME280;43298;52.560;13.508;2023-06-26T10:47:57;100638.69;;;34.49;50.73
13734;BME280;43298;52.560;13.508;2023-06-26T10:50:29;100627.00;;;34.79;49.49
13734;BME280;43298;52.560;13.508;2023-06-26T10:55:59;100624.75;;;34.09;51.04
13734;BME280;43298;52.560;13.508;2023-06-26T11:01:23;100617.41;;;34.90;52.98
13734;BME280;43298;52.560;13.508;2023-06-26T11:04:05;100616.88;;;34.57;49.69
13734;BME280;43298;52.560;13.508;2023-06-26T11:06:33;100615.28;;;35.10;52.39
13734;BME280;43298;52.560;13.508;2023-06-26T11:14:20;100614.97;;;35.54;49.96
13734;BME280;43298;52.560;13.508;2023-06-26T11:16:46;100608.19;;;35.33;49.04
13734;BME280;43298;52.560;13.508;2023-06-26T11:19:14;100598.41;;;35.39;48.97
13734;BME280;43298;52.560;13.508;2023-06-26T11:21:40;100596.88;;;34.95;51.25
13734;BME280;43298;52.560;13.508;2023-06-26T11:24:10;100601.06;;;34.91;49.78
13734;BME280;43298;52.560;13.508;2023-06-26T11:26:40;100601.56;;;35.36;48.26
13734;BME280;43298;52.560;13.508;2023-06-26T11:29:06;100591.81;;;34.87;50.47
13734;BME280;43298;52.560;13.508;2023-06-26T11:31:35;100592.47;;;35.01;47.16
13734;BME280;43298;52.560;13.508;2023-06-26T11:34:05;100591.91;;;34.56;47.93
13734;BME280;43298;52.560;13.508;2023-06-26T11:36:33;100580.72;;;34.59;50.97
13734;BME280;43298;52.560;13.508;2023-06-26T11:39:04;100573.84;;;33.96;51.05
13734;BME280;43298;52.560;13.508;2023-06-26T11:41:37;100570.63;;;33.50;51.28
13734;BME280;43298;52.560;13.508;2023-06-26T11:44:05;100578.75;;;33.37;53.73
13734;BME280;43298;52.560;13.508;2023-06-26T11:46:32;100571.91;;;34.52;52.21
13734;BME280;43298;52.560;13.508;2023-06-26T11:48:59;100566.66;;;34.57;49.46
13734;BME280;43298;52.560;13.508;2023-06-26T11:51:28;100560.69;;;34.13;52.33
13734;BME280;43298;52.560;13.508;2023-06-26T11:53:54;100555.91;;;34.39;51.64
13734;BME280;43298;52.560;13.508;2023-06-26T11:56:20;100540.97;;;34.79;49.23
13734;BME280;43298;52.560;13.508;2023-06-26T12:01:46;100539.72;;;35.00;48.63
13734;BME280;43298;52.560;13.508;2023-06-26T12:04:14;100543.00;;;35.61;47.70
13734;BME280;43298;52.560;13.508;2023-06-26T12:06:47;100532.09;;;35.44;46.96
13734;BME280;43298;52.560;13.508;2023-06-26T12:09:14;100531.22;;;35.32;48.39
13734;BME280;43298;52.560;13.508;2023-06-26T12:11:42;100517.47;;;36.28;50.26
13734;BME280;43298;52.560;13.508;2023-06-26T12:14:09;100521.53;;;36.53;47.17
13734;BME280;43298;52.560;13.508;2023-06-26T12:16:36;100507.94;;;36.48;45.08
13734;BME280;43298;52.560;13.508;2023-06-26T12:19:05;100502.94;;;35.94;45.62
13734;BME280;43298;52.560;13.508;2023-06-26T12:24:04;100505.59;;;36.52;46.93
13734;BME280;43298;52.560;13.508;2023-06-26T12:26:31;100499.00;;;36.71;43.71
13734;BME280;43298;52.560;13.508;2023-06-26T12:29:11;100498.25;;;36.12;45.96
13734;BME280;43298;52.560;13.508;2023-06-26T12:31:44;100501.59;;;35.73;45.03
13734;BME280;43298;52.560;13.508;2023-06-26T12:34:13;100506.56;;;34.88;48.14
13734;BME280;43298;52.560;13.508;2023-06-26T12:36:47;100495.00;;;34.51;48.28
13734;BME280;43298;52.560;13.508;2023-06-26T12:39:16;100489.44;;;33.61;49.52
13734;BME280;43298;52.560;13.508;2023-06-26T12:41:53;100486.88;;;33.97;51.09
13734;BME280;43298;52.560;13.508;2023-06-26T12:44:26;100482.25;;;35.12;47.19
13734;BME280;43298;52.560;13.508;2023-06-26T12:46:58;100489.03;;;34.85;50.25
13734;BME280;43298;52.560;13.508;2023-06-26T12:49:35;100469.81;;;33.60;49.25
13734;BME280;43298;52.560;13.508;2023-06-26T12:52:04;100470.44;;;34.30;50.01
13734;BME280;43298;52.560;13.508;2023-06-26T12:54:31;100465.34;;;35.23;48.33
13734;BME280;43298;52.560;13.508;2023-06-26T12:56:59;100461.19;;;35.50;47.77
13734;BME280;43298;52.560;13.508;2023-06-26T12:59:25;100455.59;;;36.33;47.93
13734;BME280;43298;52.560;13.508;2023-06-26T13:01:51;100454.78;;;36.32;45.62
13734;BME280;43298;52.560;13.508;2023-06-26T13:04:18;100450.50;;;34.91;47.43
13734;BME280;43298;52.560;13.508;2023-06-26T13:06:45;100445.72;;;34.75;50.35
13734;BME280;43298;52.560;13.508;2023-06-26T13:09:11;100438.75;;;34.56;50.18
13734;BME280;43298;52.560;13.508;2023-06-26T13:11:38;100448.63;;;34.02;51.99